Time;durP1;ratioP1;P1;durP2;ratioP2;P2;SDS_P1;SDS_P2;PMS_P1;PMS_P2;Temp;Humidity;BMP_temperature;BMP_pressure;BME280_temperature;BME280_humidity;BME280_pressure;Samples;Min_cycle;Max_cycle;Signal;HPM_P1;HPM_P2
2023/06/29 00:01:00;;;;;;;4.80;3.03;;;21.40;96.10;;;;;;5031846;28;20038;-65
2023/06/29 00:03:27;;;;;;;6.45;3.22;;;21.30;96.40;;;;;;5031911;28;20518;-64
2023/06/29 00:05:55;;;;;;;6.78;3.28;;;21.20;96.50;;;;;;5031925;28;20111;-63
2023/06/29 00:08:26;;;;;;;8.52;2.80;;;21.30;96.60;;;;;;5030990;28;20030;-62
2023/06/29 00:10:53;;;;;;;5.75;3.08;;;21.30;96.80;;;;;;5032290;28;20025;-62
2023/06/29 00:13:19;;;;;;;5.57;3.17;;;21.30;96.50;;;;;;5031952;28;20042;-64
2023/06/29 00:15:46;;;;;;;7.25;3.47;;;21.30;96.60;;;;;;5031800;28;20303;-64
2023/06/29 00:18:15;;;;;;;5.50;2.92;;;21.30;96.50;;;;;;5031403;28;20057;-63
2023/06/29 00:20:44;;;;;;;15.35;3.75;;;21.30;96.60;;;;;;5031308;28;20041;-63
2023/06/29 00:23:10;;;;;;;7.15;3.70;;;21.30;96.70;;;;;;5031297;28;20481;-64
2023/06/29 00:25:36;;;;;;;7.60;3.50;;;21.30;96.60;;;;;;5030849;28;20029;-63
2023/06/29 00:28:02;;;;;;;7.60;3.42;;;21.30;96.60;;;;;;5031428;28;20037;-64
2023/06/29 00:30:27;;;;;;;4.85;3.20;;;21.30;96.60;;;;;;5031040;28;20049;-64
2023/06/29 00:32:53;;;;;;;7.00;4.10;;;21.30;96.80;;;;;;5031228;28;20463;-63
2023/06/29 00:35:19;;;;;;;8.20;4.40;;;21.20;96.90;;;;;;5031317;28;20026;-64
2023/06/29 00:37:45;;;;;;;7.28;3.97;;;21.20;96.90;;;;;;5030529;28;20256;-64
2023/06/29 00:40:11;;;;;;;10.13;4.15;;;21.20;96.90;;;;;;5031055;28;20099;-64
2023/06/29 00:42:37;;;;;;;5.22;3.90;;;21.20;96.90;;;;;;5031196;28;20026;-63
2023/06/29 00:45:04;;;;;;;7.15;3.22;;;21.20;96.90;;;;;;5030899;28;20025;-64
2023/06/29 00:47:31;;;;;;;9.27;2.93;;;21.20;97.00;;;;;;5031129;28;20030;-63
2023/06/29 00:49:57;;;;;;;6.35;2.90;;;21.20;97.30;;;;;;5030738;28;20593;-63
2023/06/29 00:52:26;;;;;;;5.55;2.65;;;21.30;97.20;;;;;;5031133;28;20405;-64
2023/06/29 00:54:55;;;;;;;7.40;3.10;;;21.30;97.00;;;;;;5030909;28;20026;-63
2023/06/29 00:57:21;;;;;;;9.20;3.10;;;21.30;96.90;;;;;;5030725;28;20037;-62
2023/06/29 00:59:47;;;;;;;10.02;3.47;;;21.20;97.20;;;;;;5030458;28;20096;-63
2023/06/29 01:02:15;;;;;;;8.02;2.78;;;21.30;97.10;;;;;;5030512;28;20057;-62
2023/06/29 01:04:45;;;;;;;10.02;3.65;;;21.30;97.10;;;;;;5030231;28;20021;-64
2023/06/29 01:07:20;;;;;;;5.05;2.95;;;21.20;97.20;;;;;;5030446;28;20033;-63
2023/06/29 01:09:46;;;;;;;8.48;3.83;;;21.20;96.90;;;;;;5045940;28;20037;-62
2023/06/29 01:12:13;;;;;;;5.68;3.28;;;21.30;97.20;;;;;;5045746;28;20429;-62
2023/06/29 01:14:41;;;;;;;7.18;4.20;;;21.20;97.40;;;;;;5030203;28;20116;-61
2023/06/29 01:17:11;;;;;;;7.63;4.88;;;21.20;97.50;;;;;;5030069;28;20053;-63
2023/06/29 01:19:38;;;;;;;9.63;4.07;;;21.20;97.20;;;;;;5031187;28;20025;-64
2023/06/29 01:22:28;;;;;;;6.13;3.58;;;21.20;97.50;;;;;;5030429;28;20060;-63
2023/06/29 01:24:55;;;;;;;4.88;2.85;;;21.20;97.60;;;;;;5030469;28;20044;-63
2023/06/29 01:27:21;;;;;;;5.15;2.92;;;21.20;97.70;;;;;;5030390;28;20443;-64
2023/06/29 01:29:47;;;;;;;5.95;3.53;;;21.20;97.80;;;;;;5028880;28;20034;-62
2023/06/29 01:32:14;;;;;;;5.93;3.58;;;21.20;97.70;;;;;;5030120;28;20029;-62
2023/06/29 01:34:40;;;;;;;6.60;3.70;;;21.20;97.80;;;;;;5030485;28;20028;-62
2023/06/29 01:37:24;;;;;;;8.48;4.13;;;21.20;97.70;;;;;;5067720;28;20405;-64
2023/06/29 01:39:55;;;;;;;7.38;4.05;;;21.20;97.50;;;;;;5069845;28;20126;-63
2023/06/29 01:42:23;;;;;;;7.63;3.15;;;21.20;97.40;;;;;;5069704;28;20126;-64
2023/06/29 01:44:48;;;;;;;4.85;3.08;;;21.20;97.80;;;;;;5068821;28;20033;-64
2023/06/29 01:47:15;;;;;;;4.50;2.53;;;21.20;98.10;;;;;;5070007;28;20354;-64
2023/06/29 01:49:42;;;;;;;7.70;3.90;;;21.20;98.00;;;;;;5070216;28;20411;-64
2023/06/29 01:52:08;;;;;;;7.43;4.03;;;21.20;98.00;;;;;;5070228;28;20063;-63
2023/06/29 01:54:34;;;;;;;7.65;4.03;;;21.20;98.00;;;;;;5070167;28;20025;-62
2023/06/29 01:57:00;;;;;;;8.02;4.65;;;21.10;98.00;;;;;;5070004;28;20315;-64
2023/06/29 01:59:26;;;;;;;8.40;3.95;;;21.10;97.90;;;;;;5069649;28;20445;-64
2023/06/29 02:01:52;;;;;;;5.65;3.17;;;21.20;98.10;;;;;;5070180;28;20035;-63
2023/06/29 02:04:18;;;;;;;8.07;4.50;;;21.10;98.30;;;;;;5069828;28;20028;-63
2023/06/29 02:06:44;;;;;;;7.70;4.97;;;21.10;97.90;;;;;;5070085;28;20071;-63
2023/06/29 02:09:09;;;;;;;12.38;5.30;;;21.10;97.90;;;;;;5069917;28;20029;-62
2023/06/29 02:11:35;;;;;;;5.28;3.00;;;21.00;97.90;;;;;;5069934;28;20101;-63
2023/06/29 02:14:01;;;;;;;4.75;3.17;;;21.10;98.50;;;;;;5068336;28;20039;-62
2023/06/29 02:16:26;;;;;;;8.50;4.38;;;21.00;98.30;;;;;;5072336;28;20100;-64
2023/06/29 02:18:52;;;;;;;12.40;5.53;;;21.00;98.30;;;;;;5073565;28;20519;-64
2023/06/29 02:21:17;;;;;;;6.75;4.82;;;20.90;98.20;;;;;;5073844;28;20036;-63
2023/06/29 02:23:43;;;;;;;13.68;5.45;;;20.90;98.40;;;;;;5073576;28;20084;-62
2023/06/29 02:26:08;;;;;;;9.13;5.43;;;20.90;98.30;;;;;;5073600;28;20028;-64
2023/06/29 02:28:34;;;;;;;8.70;4.70;;;20.90;98.30;;;;;;5073850;28;20024;-62
2023/06/29 02:31:00;;;;;;;7.78;5.35;;;20.90;98.30;;;;;;5073635;28;20363;-63
2023/06/29 02:33:26;;;;;;;13.20;5.53;;;20.80;98.40;;;;;;5072439;28;20033;-63
2023/06/29 02:35:52;;;;;;;9.00;4.93;;;20.80;98.40;;;;;;5072406;28;20028;-64
2023/06/29 02:38:17;;;;;;;9.32;4.75;;;20.80;98.50;;;;;;5073537;28;20537;-64
2023/06/29 02:40:44;;;;;;;7.93;5.03;;;20.80;98.50;;;;;;5073755;28;20032;-63
2023/06/29 02:43:10;;;;;;;9.90;4.90;;;20.80;98.90;;;;;;5073284;28;20374;-63
2023/06/29 02:45:36;;;;;;;6.13;3.50;;;20.80;98.80;;;;;;5072081;28;20037;-63
2023/06/29 02:48:01;;;;;;;9.18;4.65;;;20.80;99.00;;;;;;5073249;28;20036;-63
2023/06/29 02:50:27;;;;;;;10.02;4.82;;;20.80;99.30;;;;;;5072073;28;20529;-64
2023/06/29 02:52:53;;;;;;;9.27;4.72;;;20.80;98.90;;;;;;5073407;28;20033;-62
2023/06/29 02:55:22;;;;;;;6.93;4.20;;;20.80;99.10;;;;;;5073618;28;20391;-62
2023/06/29 02:57:47;;;;;;;8.02;4.50;;;20.80;99.30;;;;;;5073234;28;20032;-62
2023/06/29 03:00:14;;;;;;;8.90;4.60;;;20.80;99.20;;;;;;5072959;28;20039;-63
2023/06/29 03:02:39;;;;;;;10.45;4.47;;;20.70;99.10;;;;;;5072781;28;20028;-62
2023/06/29 03:05:05;;;;;;;8.05;4.32;;;20.70;99.30;;;;;;5071515;28;20047;-63
2023/06/29 03:07:32;;;;;;;4.97;4.10;;;20.60;99.70;;;;;;5073353;28;20409;-63
2023/06/29 03:09:58;;;;;;;6.70;5.13;;;20.60;99.70;;;;;;5071637;28;20126;-63
2023/06/29 03:12:24;;;;;;;10.02;4.57;;;20.60;99.70;;;;;;5072615;28;20052;-63
2023/06/29 03:14:49;;;;;;;7.78;4.47;;;20.60;99.50;;;;;;5072662;28;20032;-62
2023/06/29 03:17:15;;;;;;;5.90;4.00;;;20.60;99.80;;;;;;5071470;28;20032;-64
2023/06/29 03:19:41;;;;;;;8.88;5.03;;;20.50;99.80;;;;;;5072977;28;20189;-64
2023/06/29 03:22:07;;;;;;;5.93;5.07;;;20.60;99.60;;;;;;5072459;28;20040;-63
2023/06/29 03:24:32;;;;;;;10.82;6.05;;;20.60;99.40;;;;;;5072520;28;20037;-65
2023/06/29 03:26:58;;;;;;;12.80;5.65;;;20.50;99.50;;;;;;5070716;28;20409;-64
2023/06/29 03:29:25;;;;;;;7.07;5.20;;;20.50;99.70;;;;;;5072097;28;20036;-63
2023/06/29 03:31:51;;;;;;;11.45;6.43;;;20.50;99.60;;;;;;5072569;28;20490;-64
2023/06/29 03:34:16;;;;;;;10.00;6.40;;;20.50;99.60;;;;;;5072935;28;20028;-64
2023/06/29 03:36:42;;;;;;;8.38;5.90;;;20.50;99.60;;;;;;5072398;28;20106;-64
2023/06/29 03:39:08;;;;;;;11.45;6.47;;;20.40;99.50;;;;;;5072156;28;20479;-63
2023/06/29 03:41:33;;;;;;;8.65;5.70;;;20.50;99.50;;;;;;5071928;28;20144;-63
2023/06/29 03:43:59;;;;;;;7.72;5.45;;;20.50;99.50;;;;;;5072006;28;20462;-64
2023/06/29 03:46:24;;;;;;;8.57;5.05;;;20.50;99.40;;;;;;5072220;28;20021;-64
2023/06/29 03:48:50;;;;;;;7.38;4.75;;;20.50;99.40;;;;;;5071702;28;20538;-63
2023/06/29 03:51:16;;;;;;;7.57;5.38;;;20.50;99.90;;;;;;5071789;28;20041;-63
2023/06/29 03:53:41;;;;;;;9.40;5.60;;;20.50;99.70;;;;;;5070632;28;20028;-64
2023/06/29 03:56:07;;;;;;;8.85;5.30;;;20.50;99.90;;;;;;5072030;28;20545;-63
2023/06/29 03:58:33;;;;;;;9.13;5.50;;;20.50;99.90;;;;;;5071989;28;20153;-64
2023/06/29 04:00:58;;;;;;;7.20;5.03;;;20.50;99.90;;;;;;5071705;28;20100;-63
2023/06/29 04:03:24;;;;;;;9.25;6.00;;;20.50;99.90;;;;;;5071857;28;20035;-64
2023/06/29 04:05:50;;;;;;;9.75;6.05;;;20.50;99.90;;;;;;5071675;28;20071;-63
2023/06/29 04:08:15;;;;;;;10.63;5.72;;;20.50;99.90;;;;;;5071622;28;20056;-63
2023/06/29 04:10:41;;;;;;;9.40;6.22;;;20.50;99.90;;;;;;5070715;28;20022;-63
2023/06/29 04:13:06;;;;;;;9.65;6.68;;;20.50;99.90;;;;;;5071615;28;20186;-65
2023/06/29 04:15:32;;;;;;;11.00;7.32;;;20.40;99.90;;;;;;5071500;28;20093;-66
2023/06/29 04:17:58;;;;;;;12.35;6.40;;;20.50;99.90;;;;;;5071206;28;20485;-65
2023/06/29 04:20:24;;;;;;;11.60;6.13;;;20.50;99.90;;;;;;5071286;28;20052;-64
2023/06/29 04:22:50;;;;;;;12.75;6.68;;;20.50;99.80;;;;;;5071925;28;20051;-65
2023/06/29 04:25:16;;;;;;;10.90;7.28;;;20.50;99.90;;;;;;5071200;28;20508;-63
2023/06/29 04:27:42;;;;;;;8.88;7.18;;;20.50;99.70;;;;;;5071203;28;20227;-65
2023/06/29 04:30:09;;;;;;;15.60;7.38;;;20.50;99.70;;;;;;5070950;28;20490;-63
2023/06/29 04:32:35;;;;;;;8.75;6.60;;;20.50;99.70;;;;;;5071147;28;20033;-64
2023/06/29 04:35:01;;;;;;;11.57;7.85;;;20.60;99.50;;;;;;5070928;28;20025;-63
2023/06/29 04:37:36;;;;;;;10.05;7.55;;;20.60;99.30;;;;;;5071714;28;20120;-63
2023/06/29 04:40:05;;;;;;;12.75;7.53;;;20.50;99.40;;;;;;5070313;28;20029;-64
2023/06/29 04:42:30;;;;;;;13.75;7.10;;;20.50;99.40;;;;;;5071060;28;20109;-63
2023/06/29 04:44:56;;;;;;;15.18;7.63;;;20.50;99.50;;;;;;5070893;28;20040;-63
2023/06/29 04:47:22;;;;;;;20.23;8.63;;;20.60;99.40;;;;;;5069474;28;20090;-63
2023/06/29 04:49:52;;;;;;;14.35;7.88;;;20.50;99.40;;;;;;5071382;28;20032;-63
2023/06/29 04:52:18;;;;;;;13.63;7.45;;;20.50;99.30;;;;;;5070724;28;20025;-65
2023/06/29 04:54:44;;;;;;;15.88;8.45;;;20.50;99.30;;;;;;5070549;28;20114;-64
2023/06/29 04:57:12;;;;;;;13.50;7.13;;;20.60;99.40;;;;;;5070316;28;20036;-63
2023/06/29 04:59:38;;;;;;;11.60;7.43;;;20.60;99.40;;;;;;5070375;28;20502;-64
2023/06/29 05:02:04;;;;;;;12.85;7.07;;;20.60;99.60;;;;;;5069171;28;20035;-64
2023/06/29 05:04:30;;;;;;;12.30;7.05;;;20.60;99.60;;;;;;5070551;28;20013;-65
2023/06/29 05:06:56;;;;;;;9.93;6.93;;;20.70;99.70;;;;;;5070093;28;20085;-64
2023/06/29 05:09:21;;;;;;;13.90;7.95;;;20.70;99.60;;;;;;5070409;28;20066;-65
2023/06/29 05:11:47;;;;;;;10.70;7.80;;;20.70;99.50;;;;;;5070121;28;20054;-63
2023/06/29 05:14:13;;;;;;;10.70;7.82;;;20.70;99.40;;;;;;5070463;28;20106;-64
2023/06/29 05:16:39;;;;;;;12.55;7.72;;;20.70;99.40;;;;;;5069372;28;20051;-64
2023/06/29 05:19:04;;;;;;;14.52;8.43;;;20.70;99.50;;;;;;5070155;28;20020;-64
2023/06/29 05:21:31;;;;;;;13.48;8.63;;;20.70;99.50;;;;;;5068863;28;20082;-63
2023/06/29 05:23:57;;;;;;;16.45;8.85;;;20.70;99.40;;;;;;5070238;28;20063;-64
2023/06/29 05:26:23;;;;;;;17.33;8.98;;;20.70;99.40;;;;;;5070038;28;20041;-63
2023/06/29 05:28:49;;;;;;;14.13;8.85;;;20.70;99.20;;;;;;5070498;28;20443;-63
2023/06/29 05:31:14;;;;;;;14.73;8.40;;;20.80;99.30;;;;;;5069946;28;20053;-65
2023/06/29 05:33:40;;;;;;;16.88;8.50;;;20.80;99.30;;;;;;5069979;28;20177;-64
2023/06/29 05:36:06;;;;;;;10.82;8.02;;;20.80;99.10;;;;;;5070167;28;20028;-65
2023/06/29 05:38:31;;;;;;;17.00;8.27;;;20.90;99.10;;;;;;5069973;28;20124;-63
2023/06/29 05:40:57;;;;;;;13.55;7.95;;;20.90;99.20;;;;;;5070568;28;20028;-63
2023/06/29 05:43:23;;;;;;;13.68;8.50;;;20.90;99.20;;;;;;5070210;28;20093;-64
2023/06/29 05:45:49;;;;;;;14.63;9.05;;;20.90;99.10;;;;;;5069810;28;20090;-63
2023/06/29 05:48:14;;;;;;;17.90;9.35;;;21.00;99.10;;;;;;5069866;28;20098;-64
2023/06/29 05:50:40;;;;;;;14.45;8.65;;;21.00;99.00;;;;;;5069277;28;20036;-63
2023/06/29 05:53:06;;;;;;;12.43;8.48;;;21.00;99.10;;;;;;5069741;28;20373;-63
2023/06/29 05:55:31;;;;;;;18.75;8.93;;;21.10;99.10;;;;;;5070157;28;20119;-64
2023/06/29 05:57:57;;;;;;;19.35;10.10;;;21.10;98.90;;;;;;5069917;28;20024;-63
2023/06/29 06:00:23;;;;;;;13.35;8.40;;;21.00;98.80;;;;;;5069867;28;20547;-63
2023/06/29 06:02:49;;;;;;;17.55;9.32;;;21.10;98.80;;;;;;5069680;28;20375;-63
2023/06/29 06:05:15;;;;;;;16.10;8.95;;;21.10;98.90;;;;;;5069347;28;20033;-63
2023/06/29 06:07:40;;;;;;;23.17;10.70;;;21.20;98.80;;;;;;5069999;28;20025;-64
2023/06/29 06:10:06;;;;;;;23.10;10.23;;;21.30;98.60;;;;;;5069530;28;20367;-66
2023/06/29 06:12:32;;;;;;;15.23;8.43;;;21.30;98.50;;;;;;5069727;28;20094;-64
2023/06/29 06:14:58;;;;;;;13.73;8.98;;;21.30;98.50;;;;;;5069345;28;20141;-64
2023/06/29 06:17:24;;;;;;;20.00;9.70;;;21.40;98.40;;;;;;5069664;28;20522;-63
2023/06/29 06:19:49;;;;;;;18.60;8.77;;;21.50;98.30;;;;;;5068817;28;20029;-65
2023/06/29 06:22:15;;;;;;;18.15;10.60;;;21.50;98.30;;;;;;5069470;28;20039;-65
2023/06/29 06:24:40;;;;;;;21.90;9.88;;;21.50;98.40;;;;;;5069244;28;20367;-64
2023/06/29 06:27:07;;;;;;;18.73;8.77;;;21.50;98.40;;;;;;5068223;28;20028;-66
2023/06/29 06:29:33;;;;;;;26.58;11.27;;;21.60;98.40;;;;;;5069374;28;20029;-66
2023/06/29 06:31:59;;;;;;;16.10;10.07;;;21.60;98.30;;;;;;5069637;28;20036;-66
2023/06/29 06:34:24;;;;;;;19.60;11.65;;;21.50;98.30;;;;;;5068472;28;20025;-66
2023/06/29 06:36:52;;;;;;;18.65;10.27;;;21.70;98.20;;;;;;5068919;28;20032;-66
2023/06/29 06:39:18;;;;;;;19.77;9.25;;;21.70;98.30;;;;;;5069466;28;20473;-66
2023/06/29 06:41:44;;;;;;;17.30;9.38;;;21.70;98.30;;;;;;5069212;28;20125;-66
2023/06/29 06:44:09;;;;;;;13.35;8.15;;;21.70;98.20;;;;;;5069064;28;20071;-66
2023/06/29 06:46:35;;;;;;;22.00;10.07;;;21.70;98.20;;;;;;5069523;28;20021;-66
2023/06/29 06:49:01;;;;;;;27.33;11.57;;;21.80;98.20;;;;;;5069172;28;20032;-67
2023/06/29 06:51:27;;;;;;;22.63;11.15;;;21.80;98.10;;;;;;5068993;28;20025;-67
2023/06/29 06:53:54;;;;;;;18.88;9.48;;;21.80;98.10;;;;;;5069270;28;20389;-65
2023/06/29 06:56:20;;;;;;;16.45;9.90;;;21.80;98.10;;;;;;5068943;28;20047;-66
2023/06/29 06:58:46;;;;;;;19.13;10.70;;;21.80;98.00;;;;;;5069344;28;20431;-66
2023/06/29 07:01:13;;;;;;;20.60;9.27;;;21.80;98.10;;;;;;5067938;28;20029;-66
2023/06/29 07:03:39;;;;;;;25.25;11.55;;;21.80;98.10;;;;;;5071288;28;20025;-64
2023/06/29 07:06:05;;;;;;;17.73;9.30;;;21.90;98.00;;;;;;5072491;28;20459;-63
2023/06/29 07:08:32;;;;;;;20.83;10.07;;;22.00;98.10;;;;;;5072597;28;20059;-63
2023/06/29 07:10:58;;;;;;;18.80;9.30;;;22.00;97.90;;;;;;5072559;28;20045;-63
2023/06/29 07:13:24;;;;;;;17.55;9.25;;;22.10;97.90;;;;;;5073628;28;20067;-63
2023/06/29 07:15:50;;;;;;;16.55;9.13;;;22.30;97.90;;;;;;5072438;28;20203;-65
2023/06/29 07:18:15;;;;;;;13.55;8.38;;;22.30;97.70;;;;;;5072198;28;20529;-65
2023/06/29 07:20:41;;;;;;;15.13;9.05;;;22.30;97.70;;;;;;5072643;28;20075;-65
2023/06/29 07:23:07;;;;;;;15.32;8.40;;;22.40;97.60;;;;;;5072415;28;20035;-63
2023/06/29 07:25:32;;;;;;;19.42;8.90;;;22.40;97.80;;;;;;5072763;28;20035;-63
2023/06/29 07:27:58;;;;;;;21.95;8.30;;;22.40;97.50;;;;;;5071261;28;20064;-64
2023/06/29 07:30:24;;;;;;;14.70;8.18;;;22.30;97.50;;;;;;5072113;28;20114;-64
2023/06/29 07:32:51;;;;;;;17.45;7.60;;;22.50;97.60;;;;;;5072179;28;20040;-65
2023/06/29 07:35:16;;;;;;;15.25;8.20;;;22.50;97.60;;;;;;5070966;28;20028;-67
2023/06/29 07:37:42;;;;;;;22.25;8.75;;;22.60;97.50;;;;;;5072715;28;20029;-63
2023/06/29 07:40:09;;;;;;;15.93;8.35;;;22.50;97.50;;;;;;5072088;28;20029;-65
2023/06/29 07:42:34;;;;;;;17.35;8.63;;;22.60;97.50;;;;;;5071865;28;20031;-64
2023/06/29 07:45:00;;;;;;;13.55;7.93;;;22.60;97.50;;;;;;5071995;28;20124;-64
2023/06/29 07:47:26;;;;;;;17.65;9.43;;;22.60;97.40;;;;;;5071766;28;20595;-65
2023/06/29 07:49:51;;;;;;;16.63;9.63;;;22.70;97.30;;;;;;5071139;28;20391;-65
2023/06/29 07:52:17;;;;;;;15.98;8.57;;;22.80;97.40;;;;;;5072008;28;20044;-65
2023/06/29 07:54:43;;;;;;;16.67;8.23;;;22.80;97.10;;;;;;5071668;28;20028;-66
2023/06/29 07:57:10;;;;;;;15.38;8.10;;;22.80;97.00;;;;;;5071532;28;20450;-66
2023/06/29 07:59:35;;;;;;;17.52;8.45;;;22.90;97.20;;;;;;5071490;28;20410;-66
2023/06/29 08:02:01;;;;;;;18.80;9.27;;;23.00;97.00;;;;;;5071507;28;20020;-67
2023/06/29 08:04:27;;;;;;;17.17;9.60;;;23.00;96.80;;;;;;5071914;28;20454;-65
2023/06/29 08:06:52;;;;;;;20.70;10.27;;;23.10;96.80;;;;;;5071154;28;20040;-67
2023/06/29 08:09:19;;;;;;;18.27;9.82;;;23.20;96.60;;;;;;5071042;28;20485;-67
2023/06/29 08:11:45;;;;;;;14.02;7.85;;;23.10;96.70;;;;;;5071227;28;20036;-67
2023/06/29 08:14:10;;;;;;;19.75;8.98;;;23.20;96.80;;;;;;5070854;28;20361;-67
2023/06/29 08:16:36;;;;;;;20.02;9.10;;;23.30;96.90;;;;;;5071473;28;20040;-67
2023/06/29 08:19:01;;;;;;;18.52;8.63;;;23.20;96.60;;;;;;5071102;28;20058;-67
2023/06/29 08:21:27;;;;;;;17.67;8.32;;;23.30;96.90;;;;;;5070935;28;20033;-66
2023/06/29 08:23:53;;;;;;;18.00;8.60;;;23.30;96.80;;;;;;5071463;28;20123;-66
2023/06/29 08:26:19;;;;;;;15.23;8.23;;;23.40;96.70;;;;;;5070487;28;20090;-65
2023/06/29 08:28:44;;;;;;;20.42;9.15;;;23.40;96.60;;;;;;5071144;28;20025;-66
2023/06/29 08:31:10;;;;;;;18.67;8.35;;;23.50;96.50;;;;;;5070616;28;20060;-66
2023/06/29 08:33:36;;;;;;;18.02;8.10;;;23.50;96.50;;;;;;5070544;28;20040;-65
2023/06/29 08:36:02;;;;;;;15.65;7.55;;;23.50;96.50;;;;;;5069609;28;20033;-66
2023/06/29 08:38:27;;;;;;;17.38;8.23;;;23.60;96.40;;;;;;5070363;28;20040;-66
2023/06/29 08:40:57;;;;;;;17.27;7.82;;;23.60;96.50;;;;;;5070808;28;20058;-67
2023/06/29 08:43:23;;;;;;;19.40;7.80;;;23.70;96.50;;;;;;5070492;28;20047;-67
2023/06/29 08:45:49;;;;;;;19.55;8.70;;;23.70;96.40;;;;;;5070309;28;20032;-67
2023/06/29 08:48:18;;;;;;;19.73;9.75;;;23.70;96.00;;;;;;5070606;28;20048;-66
2023/06/29 08:50:51;;;;;;;18.48;10.27;;;23.60;96.10;;;;;;5070355;28;20037;-65
2023/06/29 08:53:17;;;;;;;18.92;9.27;;;23.50;96.20;;;;;;5069132;28;20055;-65
2023/06/29 08:55:44;;;;;;;24.70;11.98;;;23.40;96.30;;;;;;5071083;28;20032;-67
2023/06/29 08:58:11;;;;;;;16.52;8.07;;;23.50;96.30;;;;;;5070152;28;20024;-65
2023/06/29 09:00:40;;;;;;;16.67;8.13;;;23.60;96.30;;;;;;5070176;28;20036;-65
2023/06/29 09:03:06;;;;;;;18.27;8.25;;;23.60;96.50;;;;;;5069960;28;20033;-66
2023/06/29 09:05:33;;;;;;;15.13;8.43;;;23.60;96.50;;;;;;5070077;28;20036;-66
2023/06/29 09:07:59;;;;;;;12.07;7.07;;;23.60;96.50;;;;;;5066070;28;20029;-66
2023/06/29 09:10:24;;;;;;;12.45;7.57;;;23.60;96.40;;;;;;5051050;28;20025;-65
2023/06/29 09:12:55;;;;;;;13.30;6.57;;;23.60;96.10;;;;;;5049028;28;20108;-67
2023/06/29 09:15:24;;;;;;;13.70;6.60;;;23.60;96.20;;;;;;5050426;28;20056;-66
2023/06/29 09:17:54;;;;;;;13.30;6.60;;;23.60;96.00;;;;;;5050059;28;20110;-67
2023/06/29 09:20:20;;;;;;;13.25;6.13;;;23.50;95.20;;;;;;5050443;28;20086;-66
2023/06/29 09:22:51;;;;;;;11.50;6.30;;;23.40;94.90;;;;;;5050376;28;20108;-66
2023/06/29 09:25:17;;;;;;;14.35;6.97;;;23.40;95.10;;;;;;5049522;28;20033;-66
2023/06/29 09:27:42;;;;;;;11.77;6.43;;;23.50;95.10;;;;;;5050600;28;20033;-64
2023/06/29 09:30:17;;;;;;;14.13;7.18;;;23.60;95.00;;;;;;5050167;28;20080;-65
2023/06/29 09:32:42;;;;;;;19.90;6.30;;;23.80;95.00;;;;;;5048901;28;20115;-64
2023/06/29 09:35:08;;;;;;;9.98;5.38;;;23.70;94.90;;;;;;5049927;28;20183;-65
2023/06/29 09:37:36;;;;;;;10.35;5.80;;;23.80;94.90;;;;;;5050492;28;20311;-65
2023/06/29 09:40:11;;;;;;;13.23;6.27;;;23.80;94.80;;;;;;5050104;28;20268;-64
2023/06/29 09:42:37;;;;;;;12.85;6.03;;;23.90;95.00;;;;;;5050170;28;20047;-64
2023/06/29 09:45:11;;;;;;;15.30;6.25;;;23.90;94.70;;;;;;5050149;28;20059;-65
2023/06/29 09:47:47;;;;;;;11.40;5.60;;;24.00;94.80;;;;;;5050106;28;20033;-64
2023/06/29 09:50:20;;;;;;;11.45;7.20;;;24.00;94.70;;;;;;5049870;28;20102;-64
2023/06/29 09:52:48;;;;;;;17.50;6.30;;;24.10;94.60;;;;;;5050480;28;20025;-64
2023/06/29 09:55:14;;;;;;;14.27;7.53;;;24.00;94.50;;;;;;5050004;28;20143;-64
2023/06/29 09:57:42;;;;;;;13.23;7.40;;;24.10;94.50;;;;;;5049059;28;20033;-64
2023/06/29 10:00:12;;;;;;;16.88;7.93;;;24.10;94.40;;;;;;5049292;28;20033;-64
2023/06/29 10:02:41;;;;;;;16.55;9.13;;;24.00;94.40;;;;;;5049292;28;20044;-64
2023/06/29 10:05:11;;;;;;;18.83;8.38;;;24.00;94.30;;;;;;5049696;28;20033;-65
2023/06/29 10:07:37;;;;;;;13.52;8.43;;;24.00;94.30;;;;;;5049750;28;20099;-65
2023/06/29 10:10:05;;;;;;;14.77;8.80;;;24.00;94.20;;;;;;5081873;28;20068;-65
2023/06/29 10:12:32;;;;;;;15.95;8.35;;;24.00;94.10;;;;;;5048392;28;20029;-64
2023/06/29 10:15:08;;;;;;;17.20;8.07;;;24.10;94.00;;;;;;5049600;28;20037;-64
2023/06/29 10:17:53;;;;;;;12.43;8.23;;;24.10;94.10;;;;;;5049403;28;20428;-64
2023/06/29 10:20:21;;;;;;;14.25;7.63;;;24.20;94.10;;;;;;5049545;28;20129;-65
2023/06/29 10:22:48;;;;;;;16.23;7.97;;;24.30;94.00;;;;;;5081936;28;20128;-65
2023/06/29 10:25:19;;;;;;;13.90;7.40;;;24.30;93.50;;;;;;5047981;28;20192;-64
2023/06/29 10:27:46;;;;;;;13.85;7.97;;;24.40;93.70;;;;;;5048286;28;20037;-64
2023/06/29 10:30:19;;;;;;;14.43;7.82;;;24.30;93.30;;;;;;5081791;28;20479;-65
2023/06/29 10:32:49;;;;;;;14.88;7.25;;;24.30;93.60;;;;;;5048158;28;20029;-65
2023/06/29 10:35:15;;;;;;;13.35;7.25;;;24.30;93.70;;;;;;5048090;28;20028;-65
2023/06/29 10:37:42;;;;;;;14.38;8.10;;;24.30;93.60;;;;;;5051154;28;20032;-64
2023/06/29 10:40:19;;;;;;;16.50;8.60;;;24.40;93.70;;;;;;5052887;28;20064;-64
2023/06/29 10:42:50;;;;;;;16.07;9.13;;;24.40;93.60;;;;;;5053021;28;20220;-65
2023/06/29 10:45:20;;;;;;;20.73;9.25;;;24.40;93.60;;;;;;5052884;28;20776;-65
2023/06/29 10:47:55;;;;;;;18.00;9.13;;;24.40;93.40;;;;;;5053088;28;20103;-65
2023/06/29 10:50:24;;;;;;;22.05;12.48;;;24.40;93.30;;;;;;5052714;28;20056;-63
2023/06/29 10:52:50;;;;;;;14.93;7.32;;;24.50;93.60;;;;;;5053409;28;20455;-66
2023/06/29 10:55:19;;;;;;;12.35;7.20;;;24.60;93.90;;;;;;5051554;28;20037;-65
2023/06/29 10:57:47;;;;;;;15.75;8.60;;;24.50;93.80;;;;;;5052596;28;20099;-65
2023/06/29 11:00:14;;;;;;;20.65;8.60;;;24.40;93.70;;;;;;5052581;28;20029;-65
2023/06/29 11:02:41;;;;;;;12.90;7.72;;;24.40;93.60;;;;;;5052191;28;20036;-66
2023/06/29 11:05:11;;;;;;;15.47;10.07;;;24.40;93.70;;;;;;5052485;28;20025;-66
2023/06/29 11:07:38;;;;;;;11.38;7.32;;;24.50;93.80;;;;;;5051595;28;20033;-65
2023/06/29 11:10:04;;;;;;;15.10;7.97;;;24.50;93.80;;;;;;5052306;28;20155;-64
2023/06/29 11:12:30;;;;;;;20.60;9.98;;;24.50;93.70;;;;;;5052046;28;20413;-65
2023/06/29 11:14:55;;;;;;;15.85;9.13;;;24.50;93.70;;;;;;5052484;28;20045;-65
2023/06/29 11:17:22;;;;;;;16.70;8.63;;;24.50;93.60;;;;;;5050880;28;20474;-65
2023/06/29 11:19:49;;;;;;;15.87;8.17;;;24.60;93.90;;;;;;5052537;28;20412;-65
2023/06/29 11:22:18;;;;;;;16.80;8.70;;;24.70;93.80;;;;;;5051640;28;20124;-64
2023/06/29 11:24:44;;;;;;;18.25;8.32;;;24.70;93.70;;;;;;5084307;28;20063;-66
2023/06/29 11:27:11;;;;;;;22.02;9.57;;;24.70;93.80;;;;;;5051691;28;20474;-64
2023/06/29 11:29:38;;;;;;;16.85;8.48;;;24.70;93.60;;;;;;5051607;28;20052;-65
2023/06/29 11:32:18;;;;;;;24.45;9.73;;;24.70;93.60;;;;;;5051847;28;20040;-65
2023/06/29 11:34:44;;;;;;;23.42;10.70;;;24.60;93.50;;;;;;5052495;28;20467;-65
2023/06/29 11:37:10;;;;;;;20.98;10.25;;;24.60;93.30;;;;;;5050219;28;20044;-65
2023/06/29 11:39:35;;;;;;;20.55;10.52;;;24.70;93.30;;;;;;5051760;28;20034;-64
2023/06/29 11:42:08;;;;;;;22.42;9.98;;;24.70;93.20;;;;;;5051505;28;20030;-64
2023/06/29 11:44:34;;;;;;;19.50;11.00;;;24.80;93.40;;;;;;5051642;28;20471;-65
2023/06/29 11:47:00;;;;;;;20.67;9.38;;;24.80;93.60;;;;;;5051612;28;20455;-65
2023/06/29 11:49:26;;;;;;;16.08;9.10;;;24.70;93.40;;;;;;5050234;28;20021;-66
2023/06/29 11:51:52;;;;;;;23.90;13.65;;;24.70;93.40;;;;;;5051648;28;20033;-65
2023/06/29 11:54:18;;;;;;;20.50;9.40;;;24.80;93.30;;;;;;5051347;28;20252;-65
2023/06/29 11:56:44;;;;;;;18.45;9.20;;;24.80;93.40;;;;;;5051068;28;20254;-65
2023/06/29 11:59:16;;;;;;;16.80;7.93;;;24.70;93.00;;;;;;5051268;28;20032;-65
2023/06/29 12:01:46;;;;;;;21.55;9.80;;;24.70;93.20;;;;;;5052227;28;20108;-65
2023/06/29 12:04:14;;;;;;;17.25;9.20;;;24.70;93.00;;;;;;5050903;28;20095;-65
2023/06/29 12:06:58;;;;;;;21.23;9.20;;;24.80;92.90;;;;;;5050063;28;20090;-63
2023/06/29 12:09:34;;;;;;;15.50;7.80;;;24.70;92.80;;;;;;5050998;28;20040;-67
2023/06/29 12:12:02;;;;;;;15.60;7.60;;;24.70;92.90;;;;;;5050224;28;20049;-66
2023/06/29 12:14:32;;;;;;;13.30;6.88;;;24.60;93.00;;;;;;5051311;28;20108;-66
2023/06/29 12:17:00;;;;;;;22.02;11.98;;;24.70;93.20;;;;;;5050715;28;20485;-68
2023/06/29 12:19:30;;;;;;;16.15;8.43;;;24.80;93.20;;;;;;5033920;28;20027;-68
2023/06/29 12:21:56;;;;;;;16.67;7.38;;;24.90;93.30;;;;;;5050767;28;20033;-68
2023/06/29 12:24:24;;;;;;;15.38;7.45;;;24.80;93.40;;;;;;5050696;28;20372;-68
2023/06/29 12:26:49;;;;;;;14.65;6.60;;;24.80;93.30;;;;;;5049677;28;20446;-67
2023/06/29 12:29:15;;;;;;;18.55;7.43;;;24.80;93.30;;;;;;5049507;28;20033;-68
2023/06/29 12:31:40;;;;;;;16.58;7.75;;;24.90;93.30;;;;;;5050771;28;20057;-68
2023/06/29 12:34:06;;;;;;;16.90;8.43;;;24.90;93.20;;;;;;5050658;28;20056;-66
2023/06/29 12:36:32;;;;;;;14.15;7.05;;;25.00;93.30;;;;;;5050544;28;20021;-67